Time;durP1;ratioP1;P1;durP2;ratioP2;P2;SDS_P1;SDS_P2;PMS_P1;PMS_P2;Temp;Humidity;BMP_temperature;BMP_pressure;BME280_temperature;BME280_humidity;BME280_pressure;Samples;Min_cycle;Max_cycle;Signal;HPM_P1;HPM_P2
2022/10/12 00:00:39;;;;;;;5.30;2.97;;;6.90;99.90;;;;;;5078753;28;20734;-51
2022/10/12 00:03:05;;;;;;;7.95;2.80;;;6.90;99.90;;;;;;5079442;28;20375;-47
2022/10/12 00:05:31;;;;;;;5.63;2.80;;;7.00;99.90;;;;;;5078192;28;20073;-37
2022/10/12 00:07:57;;;;;;;7.60;2.65;;;6.90;99.90;;;;;;5057883;28;20130;-51
2022/10/12 00:10:23;;;;;;;8.50;3.15;;;7.00;99.90;;;;;;5041526;28;20147;-50
2022/10/12 00:12:50;;;;;;;5.85;3.30;;;6.90;99.90;;;;;;5056821;28;20084;-49
2022/10/12 00:15:16;;;;;;;6.03;3.00;;;7.00;99.90;;;;;;5078856;28;20048;-38
2022/10/12 00:17:42;;;;;;;4.88;2.85;;;7.00;99.90;;;;;;5076738;28;20041;-37
2022/10/12 00:20:08;;;;;;;9.25;3.38;;;7.00;99.90;;;;;;5068742;28;20145;-38
2022/10/12 00:22:34;;;;;;;5.47;3.05;;;7.00;99.90;;;;;;5077938;28;20055;-37
2022/10/12 00:25:00;;;;;;;7.80;3.13;;;6.90;99.90;;;;;;5077499;28;20200;-37
2022/10/12 00:27:27;;;;;;;4.93;2.08;;;6.90;99.90;;;;;;5077213;28;20101;-38
2022/10/12 00:29:53;;;;;;;7.75;2.50;;;6.80;99.90;;;;;;5043284;28;20060;-38
2022/10/12 00:32:19;;;;;;;4.45;2.42;;;6.80;99.90;;;;;;5074502;28;20549;-38
2022/10/12 00:34:45;;;;;;;5.53;2.63;;;6.70;99.90;;;;;;5073761;28;20048;-37
2022/10/12 00:37:11;;;;;;;7.68;3.30;;;6.70;99.90;;;;;;5079950;28;20044;-37
2022/10/12 00:39:37;;;;;;;7.93;3.17;;;6.70;99.90;;;;;;5071966;28;20056;-49
2022/10/12 00:42:04;;;;;;;8.13;3.25;;;6.70;99.90;;;;;;5077680;28;20044;-47
2022/10/12 00:44:43;;;;;;;6.82;3.90;;;6.60;99.90;;;;;;5073597;28;20101;-47
2022/10/12 00:47:24;;;;;;;8.30;4.18;;;6.70;99.90;;;;;;5072432;28;20566;-48
2022/10/12 00:50:11;;;;;;;9.43;4.30;;;6.70;99.90;;;;;;5077094;28;20051;-46
2022/10/12 00:53:13;;;;;;;8.40;3.78;;;6.60;99.90;;;;;;5066937;28;20151;-37
2022/10/12 00:55:46;;;;;;;9.80;4.25;;;6.60;99.90;;;;;;5062161;28;20309;-47
2022/10/12 00:58:13;;;;;;;8.85;4.22;;;6.60;99.90;;;;;;5061220;28;20051;-46
2022/10/12 01:00:40;;;;;;;8.50;3.92;;;6.60;99.90;;;;;;5062059;28;20079;-50
2022/10/12 01:03:10;;;;;;;6.95;4.07;;;6.60;99.90;;;;;;5076218;28;20043;-51
2022/10/12 01:05:39;;;;;;;6.40;3.67;;;6.60;99.90;;;;;;5079732;28;20040;-37
2022/10/12 01:08:05;;;;;;;8.00;3.55;;;6.60;99.90;;;;;;5079047;28;20044;-47
2022/10/12 01:10:32;;;;;;;8.98;4.05;;;6.60;99.90;;;;;;5012042;28;20045;-50
2022/10/12 01:12:59;;;;;;;9.23;4.15;;;6.50;99.90;;;;;;5074383;28;20093;-48
2022/10/12 01:15:33;;;;;;;5.70;3.42;;;6.50;99.90;;;;;;5078240;28;20044;-47
2022/10/12 01:18:26;;;;;;;9.20;4.88;;;6.60;99.90;;;;;;5076890;28;20044;-51
2022/10/12 01:21:01;;;;;;;7.40;4.28;;;6.50;99.90;;;;;;5076808;28;20087;-37
2022/10/12 01:23:30;;;;;;;7.88;4.45;;;6.60;99.90;;;;;;5078278;28;20048;-48
2022/10/12 01:26:24;;;;;;;7.75;3.75;;;6.50;99.90;;;;;;5064731;28;20073;-48
2022/10/12 01:28:53;;;;;;;7.35;4.20;;;6.50;99.90;;;;;;5073340;28;20042;-51
2022/10/12 01:32:01;;;;;;;8.52;4.20;;;6.50;99.90;;;;;;5073077;28;20879;-48
2022/10/12 01:34:41;;;;;;;7.78;4.32;;;6.50;99.90;;;;;;5074280;28;20040;-47
2022/10/12 01:37:33;;;;;;;9.75;4.45;;;6.60;99.90;;;;;;5060231;28;20048;-38
2022/10/12 01:40:03;;;;;;;8.07;4.50;;;6.60;99.90;;;;;;5067778;28;20125;-38
2022/10/12 01:42:33;;;;;;;8.05;5.00;;;6.60;99.90;;;;;;5071791;28;20128;-47
2022/10/12 01:45:03;;;;;;;7.18;4.50;;;6.60;99.90;;;;;;5076370;28;20054;-49
2022/10/12 01:47:31;;;;;;;13.80;6.15;;;6.60;99.90;;;;;;5048860;28;20159;-38
2022/10/12 01:49:59;;;;;;;9.65;5.25;;;6.70;99.90;;;;;;5079682;28;20040;-46
2022/10/12 01:52:30;;;;;;;11.30;6.05;;;6.70;99.90;;;;;;5077882;28;20044;-51
2022/10/12 01:55:26;;;;;;;14.70;5.57;;;6.70;99.90;;;;;;5078427;28;20040;-47
2022/10/12 01:57:56;;;;;;;10.02;5.90;;;6.70;99.90;;;;;;5070070;28;20044;-37
2022/10/12 02:00:22;;;;;;;12.68;5.50;;;6.70;99.90;;;;;;5075562;28;20044;-38
2022/10/12 02:03:14;;;;;;;11.43;5.65;;;6.70;99.90;;;;;;5078303;28;20058;-38
2022/10/12 02:06:02;;;;;;;8.40;5.40;;;6.80;99.90;;;;;;5062236;28;20051;-37
2022/10/12 02:08:34;;;;;;;9.38;4.97;;;6.70;99.90;;;;;;5081640;28;20055;-38
2022/10/12 02:11:16;;;;;;;14.57;5.97;;;6.70;99.90;;;;;;5080894;28;20044;-46
2022/10/12 02:13:45;;;;;;;;;;;6.70;99.90;;;;;;5072063;28;20048;-46
2022/10/12 02:16:18;;;;;;;9.32;5.15;;;6.70;99.90;;;;;;5079226;28;19915;-38
2022/10/12 02:18:48;;;;;;;9.68;5.18;;;6.60;99.90;;;;;;5077909;28;20060;-38
2022/10/12 02:21:19;;;;;;;11.60;4.72;;;6.60;99.90;;;;;;5064254;28;20495;-37
2022/10/12 02:23:52;;;;;;;6.22;4.50;;;6.60;99.90;;;;;;5078864;28;20052;-47
2022/10/12 02:26:20;;;;;;;8.00;4.18;;;6.50;99.90;;;;;;5081009;28;20067;-38
2022/10/12 02:28:47;;;;;;;8.35;4.60;;;6.50;99.90;;;;;;5082589;28;20048;-45
2022/10/12 02:31:54;;;;;;;10.23;4.22;;;6.40;99.90;;;;;;5064309;28;20050;-48
2022/10/12 02:34:30;;;;;;;8.77;4.55;;;6.30;99.90;;;;;;5039923;28;20052;-51
2022/10/12 02:37:15;;;;;;;11.27;5.28;;;6.20;99.90;;;;;;5062287;28;20055;-50
2022/10/12 02:39:49;;;;;;;10.93;5.50;;;6.30;99.90;;;;;;5068956;28;20200;-48
2022/10/12 02:42:29;;;;;;;9.77;6.07;;;6.30;99.90;;;;;;5082333;28;20423;-49
2022/10/12 02:44:58;;;;;;;11.02;5.68;;;6.20;99.90;;;;;;5077800;28;20661;-47
2022/10/12 02:47:27;;;;;;;10.35;5.90;;;6.30;99.90;;;;;;5072025;28;20093;-48
2022/10/12 02:49:55;;;;;;;10.80;6.03;;;6.20;99.90;;;;;;5080670;28;20040;-38
2022/10/12 02:52:22;;;;;;;13.32;6.20;;;6.10;99.90;;;;;;5074968;28;20076;-37
2022/10/12 02:54:48;;;;;;;7.80;5.43;;;6.10;99.90;;;;;;5078863;28;20054;-37
2022/10/12 02:57:15;;;;;;;11.27;6.22;;;6.10;99.90;;;;;;5076249;28;20647;-37
2022/10/12 02:59:41;;;;;;;9.90;5.43;;;6.10;99.90;;;;;;5078244;28;20469;-37
2022/10/12 03:02:09;;;;;;;11.02;5.75;;;6.10;99.90;;;;;;5079441;28;20044;-37
2022/10/12 03:04:36;;;;;;;11.70;5.80;;;6.10;99.90;;;;;;5078542;28;20048;-37
2022/10/12 03:07:03;;;;;;;10.68;6.55;;;6.10;99.90;;;;;;5075719;28;20044;-37
2022/10/12 03:09:29;;;;;;;14.05;6.57;;;6.10;99.90;;;;;;5095212;28;20815;-37
2022/10/12 03:11:55;;;;;;;11.27;7.45;;;6.10;99.90;;;;;;5081111;28;20056;-38
2022/10/12 03:14:21;;;;;;;13.73;7.85;;;6.10;99.90;;;;;;5076841;28;20047;-38
2022/10/12 03:16:49;;;;;;;12.77;7.28;;;6.10;99.90;;;;;;5077327;28;20055;-38
2022/10/12 03:19:15;;;;;;;11.32;6.65;;;6.10;99.90;;;;;;5027090;28;20050;-47
2022/10/12 03:21:41;;;;;;;11.23;7.72;;;6.10;99.90;;;;;;5061442;28;20056;-46
2022/10/12 03:24:07;;;;;;;11.25;6.57;;;6.00;99.90;;;;;;5058973;28;20135;-46
2022/10/12 03:26:34;;;;;;;13.75;7.95;;;6.00;99.90;;;;;;5080311;28;20047;-49
2022/10/12 03:29:00;;;;;;;10.57;7.15;;;6.00;99.90;;;;;;5078576;28;20051;-51
2022/10/12 03:31:26;;;;;;;12.70;7.93;;;6.00;99.90;;;;;;5078515;28;20048;-46
2022/10/12 03:33:52;;;;;;;14.40;9.15;;;6.00;99.90;;;;;;5080423;28;20097;-49
2022/10/12 03:36:18;;;;;;;14.27;8.35;;;6.00;99.90;;;;;;5075801;28;20051;-49
2022/10/12 03:38:44;;;;;;;16.63;10.15;;;6.00;99.90;;;;;;5076628;28;20047;-49
2022/10/12 03:41:11;;;;;;;16.17;8.95;;;6.00;99.90;;;;;;5027976;28;20048;-47
2022/10/12 03:43:37;;;;;;;18.45;9.90;;;6.00;99.90;;;;;;5059695;28;20133;-50
2022/10/12 03:46:03;;;;;;;15.05;10.05;;;5.90;99.90;;;;;;5077323;28;20044;-49
2022/10/12 03:48:29;;;;;;;13.07;8.50;;;5.90;99.90;;;;;;5079462;28;20078;-48
2022/10/12 03:50:55;;;;;;;12.30;8.27;;;5.90;99.90;;;;;;5078861;28;20103;-49
2022/10/12 03:53:22;;;;;;;14.77;8.20;;;5.90;99.90;;;;;;5077018;28;20055;-48
2022/10/12 03:55:50;;;;;;;14.80;9.07;;;5.90;99.90;;;;;;5061714;28;21050;-48
2022/10/12 03:58:19;;;;;;;14.02;8.75;;;5.90;99.90;;;;;;5074253;28;20387;-50
2022/10/12 04:00:45;;;;;;;15.73;9.52;;;5.90;99.90;;;;;;5078157;28;20443;-47
2022/10/12 04:03:12;;;;;;;16.58;8.73;;;5.90;99.90;;;;;;5075478;28;20048;-47
2022/10/12 04:05:39;;;;;;;13.88;9.27;;;5.90;99.90;;;;;;5055140;28;20059;-47
2022/10/12 04:08:06;;;;;;;13.65;9.10;;;5.90;99.90;;;;;;5079331;28;20123;-49
2022/10/12 04:10:32;;;;;;;14.77;9.45;;;5.90;99.90;;;;;;5045284;28;20490;-49
2022/10/12 04:12:58;;;;;;;14.55;8.60;;;5.90;99.90;;;;;;5078129;28;20113;-38
2022/10/12 04:15:24;;;;;;;15.43;9.27;;;5.90;99.90;;;;;;5079481;28;21394;-37
2022/10/12 04:17:52;;;;;;;14.57;8.98;;;5.90;99.90;;;;;;5080146;28;20053;-38
2022/10/12 04:20:18;;;;;;;13.82;9.77;;;5.80;99.90;;;;;;5079354;28;20040;-37
2022/10/12 04:22:45;;;;;;;13.48;7.93;;;5.80;99.90;;;;;;5079316;28;20379;-37
2022/10/12 04:25:11;;;;;;;13.18;8.98;;;5.80;99.90;;;;;;5034609;28;20036;-49
2022/10/12 04:27:37;;;;;;;12.63;7.95;;;5.70;99.90;;;;;;5075054;28;20130;-49
2022/10/12 04:30:03;;;;;;;15.20;8.18;;;5.70;99.90;;;;;;5050050;28;20051;-48
2022/10/12 04:32:30;;;;;;;13.57;8.80;;;5.70;99.90;;;;;;5077263;28;20804;-48
2022/10/12 04:34:56;;;;;;;13.00;8.93;;;5.70;99.90;;;;;;5076945;28;20043;-47
2022/10/12 04:37:22;;;;;;;11.27;7.70;;;5.70;99.90;;;;;;5075900;28;20040;-52
2022/10/12 04:39:48;;;;;;;11.07;7.40;;;5.60;99.90;;;;;;5048760;28;20043;-50
2022/10/12 04:42:14;;;;;;;12.93;8.40;;;5.60;99.90;;;;;;5070233;28;20055;-49
2022/10/12 04:44:40;;;;;;;10.63;7.93;;;5.60;99.90;;;;;;5058299;28;20594;-50
2022/10/12 04:47:06;;;;;;;14.60;8.02;;;5.60;99.90;;;;;;5074319;28;20745;-38
2022/10/12 04:49:33;;;;;;;10.93;7.47;;;5.50;99.90;;;;;;5052904;28;20082;-37
2022/10/12 04:51:59;;;;;;;13.15;8.35;;;5.50;99.90;;;;;;5067475;28;20052;-37
2022/10/12 04:54:25;;;;;;;9.50;7.82;;;5.50;99.90;;;;;;5068678;28;20063;-38
2022/10/12 04:56:51;;;;;;;17.65;8.98;;;5.50;99.90;;;;;;5070248;28;20161;-38
2022/10/12 04:59:17;;;;;;;10.65;7.85;;;5.50;99.90;;;;;;5072613;28;20487;-38
2022/10/12 05:01:43;;;;;;;11.27;8.32;;;5.40;99.90;;;;;;5069569;28;20515;-37
2022/10/12 05:04:09;;;;;;;14.23;8.80;;;5.40;99.90;;;;;;5069244;28;20487;-37
2022/10/12 05:06:35;;;;;;;12.48;8.05;;;5.30;99.90;;;;;;5071613;28;20109;-37
2022/10/12 05:09:02;;;;;;;12.57;8.18;;;5.30;99.90;;;;;;5073131;28;20549;-37
2022/10/12 05:11:28;;;;;;;13.48;8.65;;;5.30;99.90;;;;;;5073553;28;20059;-38
2022/10/12 05:13:54;;;;;;;14.68;8.80;;;5.20;99.90;;;;;;5070516;28;20566;-38
2022/10/12 05:16:20;;;;;;;12.48;7.93;;;5.20;99.90;;;;;;5073999;28;20067;-38
2022/10/12 05:18:46;;;;;;;15.43;8.35;;;5.20;99.90;;;;;;5073326;28;20697;-37
2022/10/12 05:21:13;;;;;;;16.13;9.25;;;5.10;99.90;;;;;;5070311;28;21891;-37
2022/10/12 05:23:39;;;;;;;12.77;7.85;;;5.10;99.90;;;;;;5066249;28;20041;-38
2022/10/12 05:26:05;;;;;;;8.57;7.10;;;5.10;99.90;;;;;;5074178;28;20098;-38
2022/10/12 05:28:31;;;;;;;13.23;7.53;;;5.10;99.90;;;;;;5076316;28;20060;-38
2022/10/12 05:30:57;;;;;;;9.43;7.20;;;5.00;99.90;;;;;;5073763;28;20058;-38
2022/10/12 05:33:23;;;;;;;10.63;7.88;;;5.10;99.90;;;;;;5057006;28;20526;-38
2022/10/12 05:35:49;;;;;;;11.52;7.75;;;5.10;99.90;;;;;;5050752;28;20055;-38
2022/10/12 05:38:15;;;;;;;11.05;7.47;;;5.00;99.90;;;;;;5074347;28;20409;-37
2022/10/12 05:40:42;;;;;;;11.85;7.40;;;5.00;99.90;;;;;;5072598;28;20559;-37
2022/10/12 05:43:11;;;;;;;10.82;7.57;;;5.00;99.90;;;;;;5065430;28;20625;-37
2022/10/12 05:45:37;;;;;;;13.15;7.88;;;5.00;99.90;;;;;;5072352;28;20049;-38
2022/10/12 05:48:03;;;;;;;12.43;7.40;;;5.00;99.90;;;;;;5072652;28;20139;-38
2022/10/12 05:50:29;;;;;;;11.68;7.90;;;5.00;99.90;;;;;;5046858;28;20880;-37
2022/10/12 05:52:55;;;;;;;13.05;7.57;;;5.00;99.90;;;;;;5075847;28;20059;-45
2022/10/12 05:55:21;;;;;;;13.35;8.27;;;5.10;99.90;;;;;;5075162;28;20040;-46
2022/10/12 05:57:48;;;;;;;16.38;8.90;;;5.10;99.90;;;;;;5067050;28;20118;-45
2022/10/12 06:00:15;;;;;;;16.15;9.57;;;5.10;99.90;;;;;;5055660;28;20044;-46
2022/10/12 06:02:41;;;;;;;12.52;7.93;;;5.00;99.90;;;;;;5071815;28;20522;-45
2022/10/12 06:05:07;;;;;;;11.25;8.55;;;5.10;99.90;;;;;;5071759;28;20140;-48
2022/10/12 06:07:33;;;;;;;9.68;8.15;;;5.00;99.90;;;;;;5074930;28;20746;-46
2022/10/12 06:09:59;;;;;;;11.95;7.70;;;5.10;99.90;;;;;;5068655;28;20411;-45
2022/10/12 06:12:26;;;;;;;12.10;7.80;;;5.00;99.90;;;;;;5069691;28;20392;-45
2022/10/12 06:14:53;;;;;;;13.35;8.40;;;5.00;99.90;;;;;;5072711;28;20079;-46
2022/10/12 06:17:19;;;;;;;12.65;8.90;;;5.00;99.90;;;;;;5071004;28;20097;-46
2022/10/12 06:19:45;;;;;;;11.88;7.63;;;5.00;99.90;;;;;;5073484;28;20054;-45
2022/10/12 06:22:11;;;;;;;11.27;7.97;;;5.00;99.90;;;;;;5068313;28;20105;-45
2022/10/12 06:24:37;;;;;;;16.13;7.30;;;5.00;99.90;;;;;;5059997;28;20048;-46
2022/10/12 06:27:04;;;;;;;12.57;8.20;;;5.00;99.90;;;;;;5055712;28;20056;-48
2022/10/12 06:29:30;;;;;;;15.48;8.00;;;5.00;99.90;;;;;;5066825;28;20198;-45
2022/10/12 06:31:56;;;;;;;11.48;8.32;;;5.10;99.90;;;;;;5072689;28;22169;-46
2022/10/12 06:34:22;;;;;;;14.23;7.82;;;5.00;99.90;;;;;;5074058;28;20052;-46
2022/10/12 06:36:48;;;;;;;13.48;8.13;;;5.10;99.90;;;;;;5065201;28;20498;-49
2022/10/12 06:39:15;;;;;;;10.38;8.23;;;5.20;99.90;;;;;;5072980;28;20814;-46
2022/10/12 06:41:41;;;;;;;14.77;8.50;;;5.20;99.90;;;;;;5075749;28;20047;-47
2022/10/12 06:44:08;;;;;;;15.43;7.78;;;5.20;99.90;;;;;;5069803;28;20192;-45
2022/10/12 06:46:34;;;;;;;12.20;8.55;;;5.30;99.90;;;;;;5040389;28;20044;-47
2022/10/12 06:49:00;;;;;;;13.10;7.72;;;5.30;99.90;;;;;;5070568;28;20127;-47
2022/10/12 06:51:26;;;;;;;10.52;8.02;;;5.30;99.90;;;;;;5063030;28;20090;-45
2022/10/12 06:53:55;;;;;;;13.27;9.02;;;5.40;99.90;;;;;;5067590;28;20056;-48
2022/10/12 06:56:22;;;;;;;12.82;7.60;;;5.40;99.90;;;;;;5075781;28;20051;-46
2022/10/12 06:58:53;;;;;;;12.90;8.63;;;5.50;99.90;;;;;;5077856;28;20044;-49
2022/10/12 07:01:20;;;;;;;15.13;9.40;;;5.50;99.90;;;;;;5070460;28;20050;-38
2022/10/12 07:03:46;;;;;;;19.63;9.80;;;5.60;99.90;;;;;;5070163;28;20118;-38
2022/10/12 07:06:13;;;;;;;12.27;9.40;;;5.60;99.90;;;;;;5070673;28;20638;-38
2022/10/12 07:08:40;;;;;;;13.85;9.43;;;5.60;99.90;;;;;;5067947;28;20122;-37
2022/10/12 07:11:09;;;;;;;16.25;9.65;;;5.70;99.90;;;;;;5078455;28;20044;-38
2022/10/12 07:13:36;;;;;;;14.25;10.20;;;5.70;99.90;;;;;;5067154;28;20669;-38
2022/10/12 07:16:02;;;;;;;16.98;10.32;;;5.80;99.90;;;;;;5047252;28;20530;-38
2022/10/12 07:18:29;;;;;;;17.58;11.13;;;5.90;99.90;;;;;;5071736;28;20052;-38
2022/10/12 07:20:58;;;;;;;16.88;9.82;;;6.10;99.90;;;;;;5068141;28;20139;-38
2022/10/12 07:23:26;;;;;;;16.63;9.80;;;6.40;99.90;;;;;;5071278;28;20047;-39
2022/10/12 07:25:52;;;;;;;17.70;9.88;;;6.80;99.90;;;;;;5057217;28;20055;-39
2022/10/12 07:28:19;;;;;;;16.42;9.68;;;7.20;99.90;;;;;;5058216;28;20048;-38
2022/10/12 07:30:46;;;;;;;14.40;9.23;;;7.50;99.90;;;;;;5055485;28;20495;-38
2022/10/12 07:33:12;;;;;;;15.35;9.93;;;7.90;99.90;;;;;;5057109;28;20083;-39
2022/10/12 07:35:38;;;;;;;16.60;10.02;;;8.20;99.90;;;;;;5042230;28;20048;-41
2022/10/12 07:38:05;;;;;;;16.45;8.68;;;8.50;99.90;;;;;;5068623;28;20053;-39
2022/10/12 07:40:31;;;;;;;14.82;9.38;;;8.70;99.90;;;;;;5067410;28;20049;-39
2022/10/12 07:42:58;;;;;;;13.63;8.05;;;9.00;99.90;;;;;;5067748;28;20744;-39
2022/10/12 07:45:27;;;;;;;17.77;8.10;;;9.50;99.90;;;;;;5071889;28;20044;-39
2022/10/12 07:47:54;;;;;;;16.50;8.52;;;10.10;99.90;;;;;;5066445;28;20050;-40
2022/10/12 07:50:20;;;;;;;14.77;7.82;;;10.80;99.90;;;;;;5068460;28;20039;-39
2022/10/12 07:52:46;;;;;;;13.98;6.82;;;11.50;99.90;;;;;;5073567;28;20048;-40
2022/10/12 07:55:12;;;;;;;10.20;6.38;;;12.30;99.90;;;;;;5071216;28;20051;-39
2022/10/12 07:57:39;;;;;;;12.40;6.05;;;13.00;99.90;;;;;;5067791;28;20139;-40
2022/10/12 08:00:05;;;;;;;12.50;6.72;;;13.60;99.90;;;;;;5042900;28;20048;-40
2022/10/12 08:02:37;;;;;;;14.02;6.18;;;13.70;99.90;;;;;;5063570;28;20117;-40
2022/10/12 08:05:04;;;;;;;10.90;5.63;;;13.60;99.90;;;;;;5048670;28;20062;-39
2022/10/12 08:07:30;;;;;;;13.23;5.72;;;13.10;99.90;;;;;;5069568;28;20036;-38
2022/10/12 08:09:56;;;;;;;10.73;6.38;;;12.60;99.90;;;;;;5074150;28;20047;-37
2022/10/12 08:12:22;;;;;;;12.68;5.72;;;12.30;99.90;;;;;;5075089;28;20052;-37
2022/10/12 08:14:49;;;;;;;13.20;5.43;;;12.00;99.90;;;;;;5058755;28;20051;-40
2022/10/12 08:17:15;;;;;;;9.38;5.68;;;11.80;99.90;;;;;;5075911;28;20079;-39
2022/10/12 08:19:41;;;;;;;12.15;6.00;;;11.60;99.90;;;;;;5068582;28;20040;-37
2022/10/12 08:22:07;;;;;;;11.77;5.55;;;11.50;99.90;;;;;;5054065;28;20723;-37
2022/10/12 08:24:34;;;;;;;12.45;6.25;;;11.40;99.90;;;;;;5063678;28;20198;-47
2022/10/12 08:27:00;;;;;;;13.18;5.75;;;11.30;99.90;;;;;;5055159;28;20349;-45
2022/10/12 08:29:27;;;;;;;13.70;6.00;;;11.10;99.90;;;;;;5069346;28;20040;-41
2022/10/12 08:31:53;;;;;;;10.55;5.45;;;11.00;99.90;;;;;;5077316;28;20047;-39
2022/10/12 08:34:19;;;;;;;13.10;5.85;;;10.90;99.90;;;;;;5062154;28;20681;-38
2022/10/12 08:36:46;;;;;;;12.82;5.43;;;11.00;99.90;;;;;;5045696;28;20060;-38
2022/10/12 08:39:12;;;;;;;14.10;5.95;;;11.00;99.90;;;;;;5062599;28;20131;-38
2022/10/12 08:41:50;;;;;;;13.27;6.45;;;11.10;99.90;;;;;;5075742;28;20597;-38
2022/10/12 08:44:31;;;;;;;13.23;5.80;;;11.00;99.90;;;;;;5074055;28;20040;-37
2022/10/12 08:47:01;;;;;;;11.53;5.73;;;11.10;99.90;;;;;;5066107;28;20475;-37
2022/10/12 08:49:30;;;;;;;10.93;5.88;;;11.20;99.90;;;;;;5066974;28;20044;-37
2022/10/12 08:51:59;;;;;;;14.18;5.85;;;11.20;99.90;;;;;;5054707;28;20047;-48
2022/10/12 08:54:36;;;;;;;10.23;5.82;;;11.40;99.90;;;;;;5069496;28;20063;-45
2022/10/12 08:57:02;;;;;;;13.27;6.13;;;11.50;99.90;;;;;;5067525;28;20055;-46
2022/10/12 08:59:30;;;;;;;13.70;6.65;;;11.70;99.90;;;;;;5075647;28;20044;-45
2022/10/12 09:02:23;;;;;;;12.65;5.40;;;11.80;99.90;;;;;;5074903;28;20050;-44
2022/10/12 09:05:13;;;;;;;13.13;6.70;;;12.00;99.90;;;;;;5070961;28;20056;-44
2022/10/12 09:07:43;;;;;;;10.90;6.05;;;12.20;99.90;;;;;;5073440;28;20084;-46
2022/10/12 09:10:28;;;;;;;13.68;7.05;;;12.50;99.90;;;;;;5072789;28;20051;-46
2022/10/12 09:13:20;;;;;;;15.00;6.05;;;13.20;99.90;;;;;;5080832;28;20098;-48
2022/10/12 09:15:52;;;;;;;12.90;5.72;;;14.90;99.90;;;;;;5056888;28;20503;-45
2022/10/12 09:18:33;;;;;;;;;;;16.00;99.90;;;;;;5073625;28;20598;-45
2022/10/12 09:21:01;;;;;;;10.75;4.53;;;17.10;99.90;;;;;;5070458;28;19967;-49
2022/10/12 09:23:32;;;;;;;13.90;4.82;;;17.50;99.90;;;;;;5064925;28;20044;-49
2022/10/12 09:26:38;;;;;;;9.38;4.57;;;17.60;99.90;;;;;;5073217;28;20050;-47
2022/10/12 09:29:27;;;;;;;10.13;4.45;;;18.20;99.90;;;;;;5080321;28;20047;-45
2022/10/12 09:32:32;;;;;;;11.18;4.80;;;18.90;99.90;;;;;;5078605;28;20048;-40
2022/10/12 09:34:59;;;;;;;11.30;4.90;;;19.00;99.90;;;;;;5076861;28;20048;-40
2022/10/12 09:37:28;;;;;;;12.93;5.50;;;19.90;99.90;;;;;;5054617;28;20055;-39
2022/10/12 09:39:54;;;;;;;10.02;4.68;;;20.40;99.90;;;;;;5040308;28;20040;-44
2022/10/12 09:42:21;;;;;;;12.05;4.57;;;20.50;99.90;;;;;;5074424;28;20071;-39
2022/10/12 09:44:50;;;;;;;7.07;3.65;;;20.60;99.90;;;;;;5074134;28;20040;-40
2022/10/12 09:47:28;;;;;;;11.95;4.47;;;20.60;99.90;;;;;;5072734;28;20040;-41
2022/10/12 09:50:03;;;;;;;9.63;4.50;;;20.40;98.70;;;;;;5070733;28;20036;-40
2022/10/12 09:52:41;;;;;;;11.20;3.78;;;20.20;97.80;;;;;;5073453;28;20410;-41
2022/10/12 09:55:17;;;;;;;10.73;4.22;;;20.30;99.90;;;;;;5073178;28;20130;-40
2022/10/12 09:57:53;;;;;;;10.20;3.97;;;20.40;97.00;;;;;;5075931;28;20929;-41
2022/10/12 10:00:28;;;;;;;11.13;4.25;;;20.30;97.00;;;;;;5074691;28;20080;-40
2022/10/12 10:02:55;;;;;;;9.77;4.32;;;20.50;95.50;;;;;;5077895;28;20159;-42
2022/10/12 10:05:26;;;;;;;10.38;4.22;;;20.60;96.40;;;;;;5076685;28;20048;-39
2022/10/12 10:08:11;;;;;;;10.50;4.43;;;21.10;95.40;;;;;;5075404;28;20151;-42
2022/10/12 10:10:54;;;;;;;9.60;3.92;;;21.70;93.30;;;;;;5070781;28;20048;-40
2022/10/12 10:13:25;;;;;;;8.98;3.58;;;20.80;87.20;;;;;;5068569;28;20041;-42
2022/10/12 10:16:02;;;;;;;10.75;4.65;;;20.70;95.30;;;;;;5071354;28;20044;-40
2022/10/12 10:18:34;;;;;;;12.70;4.70;;;20.30;94.70;;;;;;5073756;28;20050;-48
2022/10/12 10:21:03;;;;;;;10.77;4.07;;;20.70;93.70;;;;;;5071682;28;20511;-48
2022/10/12 10:23:37;;;;;;;13.18;4.43;;;21.70;92.50;;;;;;5072346;28;20056;-49
2022/10/12 10:26:09;;;;;;;12.57;5.10;;;21.80;91.30;;;;;;5075116;28;20044;-50
2022/10/12 10:28:38;;;;;;;11.95;4.40;;;22.40;86.30;;;;;;5067858;28;20045;-50
2022/10/12 10:31:16;;;;;;;11.50;4.57;;;22.50;82.40;;;;;;5056122;28;20515;-48
2022/10/12 10:34:06;;;;;;;10.98;4.55;;;22.70;74.60;;;;;;5071053;28;20166;-49
2022/10/12 10:36:54;;;;;;;10.48;4.88;;;23.30;72.90;;;;;;5067907;28;20119;-49
2022/10/12 10:39:47;;;;;;;9.63;4.57;;;23.90;74.40;;;;;;5071057;28;20056;-50
2022/10/12 10:42:33;;;;;;;8.50;4.25;;;22.80;67.40;;;;;;5071770;28;20074;-47
2022/10/12 10:45:27;;;;;;;9.82;4.20;;;23.40;70.10;;;;;;5077005;28;20047;-43
2022/10/12 10:48:19;;;;;;;11.20;4.15;;;23.10;66.60;;;;;;5072630;28;20756;-40
2022/10/12 10:50:59;;;;;;;8.15;3.85;;;23.70;66.80;;;;;;5074196;28;20129;-40
2022/10/12 10:53:30;;;;;;;9.15;3.45;;;23.80;61.10;;;;;;5061718;28;20044;-41
2022/10/12 10:56:24;;;;;;;9.10;3.47;;;23.90;63.20;;;;;;5078081;28;20487;-50
2022/10/12 10:59:01;;;;;;;6.93;3.47;;;23.70;60.70;;;;;;5067540;28;20077;-49
2022/10/12 11:01:51;;;;;;;11.45;3.40;;;23.60;60.60;;;;;;5070176;28;20044;-50
2022/10/12 11:04:31;;;;;;;10.15;3.53;;;22.80;61.50;;;;;;5074144;28;20039;-48
2022/10/12 11:07:01;;;;;;;7.75;3.20;;;23.10;64.30;;;;;;5072339;28;20396;-48
2022/10/12 11:09:34;;;;;;;10.02;3.30;;;23.60;62.40;;;;;;5072006;28;20155;-49
2022/10/12 11:12:03;;;;;;;10.32;3.45;;;23.90;59.80;;;;;;5065805;28;20127;-51
2022/10/12 11:14:55;;;;;;;11.65;4.07;;;24.10;59.20;;;;;;5064672;28;20072;-47
2022/10/12 11:17:31;;;;;;;10.10;3.60;;;24.00;55.20;;;;;;5067018;28;20065;-54
2022/10/12 11:20:19;;;;;;;9.70;3.38;;;24.70;55.30;;;;;;5074348;28;20105;-51
2022/10/12 11:22:53;;;;;;;9.45;3.08;;;24.50;54.70;;;;;;5064427;28;20061;-49
2022/10/12 11:25:22;;;;;;;9.57;3.28;;;24.50;55.20;;;;;;5070696;28;20048;-46
2022/10/12 11:27:49;;;;;;;9.77;3.22;;;24.50;55.90;;;;;;5068791;28;20079;-49
2022/10/12 11:30:21;;;;;;;11.15;3.42;;;24.90;54.40;;;;;;5074884;28;20047;-48
2022/10/12 11:32:54;;;;;;;8.27;3.25;;;24.30;54.60;;;;;;5069816;28;20166;-50
2022/10/12 11:35:30;;;;;;;13.55;3.65;;;24.60;54.40;;;;;;5072053;28;20056;-48
2022/10/12 11:38:04;;;;;;;8.02;3.00;;;24.90;53.70;;;;;;5090340;28;20044;-50
2022/10/12 11:40:44;;;;;;;9.50;3.28;;;25.10;53.90;;;;;;5068661;28;20056;-47
2022/10/12 11:43:20;;;;;;;10.30;3.70;;;25.20;54.00;;;;;;5071504;28;20040;-52
2022/10/12 11:45:49;;;;;;;8.82;2.85;;;25.50;53.20;;;;;;5040024;28;20112;-50
2022/10/12 11:48:21;;;;;;;8.90;3.70;;;24.80;52.70;;;;;;5076043;28;20048;-51
2022/10/12 11:50:50;;;;;;;11.18;3.58;;;25.50;52.70;;;;;;5060049;28;20039;-51
2022/10/12 11:53:18;;;;;;;9.82;2.85;;;25.60;52.20;;;;;;5059229;28;20043;-51
2022/10/12 11:55:53;;;;;;;9.98;3.63;;;25.90;52.30;;;;;;5071436;28;20540;-40
2022/10/12 11:58:30;;;;;;;11.30;7.32;;;26.50;51.70;;;;;;5054805;28;20044;-39
2022/10/12 12:01:38;;;;;;;10.90;4.60;;;26.60;49.80;;;;;;5069699;28;20040;-39
2022/10/12 12:04:20;;;;;;;29.30;25.35;;;26.00;50.20;;;;;;5047657;28;20262;-39
2022/10/12 12:06:52;;;;;;;10.95;5.50;;;26.70;49.60;;;;;;5079712;28;20051;-52
2022/10/12 12:09:20;;;;;;;14.27;6.97;;;26.70;50.00;;;;;;5069843;28;20059;-52
2022/10/12 12:11:47;;;;;;;7.90;2.88;;;27.00;49.70;;;;;;5073225;28;20052;-52
2022/10/12 12:14:25;;;;;;;8.15;2.88;;;26.90;49.10;;;;;;5071609;28;20168;-53
2022/10/12 12:17:14;;;;;;;10.25;3.33;;;26.30;48.30;;;;;;5069278;28;20086;-49
2022/10/12 12:19:42;;;;;;;6.88;2.83;;;26.50;47.20;;;;;;5038696;28;20398;-43
2022/10/12 12:22:23;;;;;;;10.63;5.70;;;26.30;48.40;;;;;;5062266;28;20135;-39
2022/10/12 12:24:53;;;;;;;12.98;5.95;;;26.90;48.00;;;;;;5071909;28;20322;-49
2022/10/12 12:27:50;;;;;;;9.57;3.63;;;27.00;48.50;;;;;;5069285;28;20108;-50
2022/10/12 12:30:20;;;;;;;6.05;2.60;;;27.00;47.70;;;;;;5068460;28;20047;-54
2022/10/12 12:33:00;;;;;;;6.82;2.75;;;26.40;49.00;;;;;;5070265;28;20040;-51
2022/10/12 12:35:37;;;;;;;9.68;4.20;;;26.40;48.10;;;;;;5061869;28;20041;-52
2022/10/12 12:38:12;;;;;;;9.32;2.83;;;26.50;48.20;;;;;;5068519;28;20797;-50
2022/10/12 12:40:39;;;;;;;9.20;3.05;;;26.90;48.40;;;;;;5068750;28;20071;-39
2022/10/12 12:43:28;;;;;;;8.23;2.90;;;26.80;49.30;;;;;;5072124;28;20046;-39
2022/10/12 12:46:00;;;;;;;9.18;4.18;;;26.20;47.30;;;;;;5066883;28;20122;-39
2022/10/12 12:48:38;;;;;;;16.77;13.20;;;27.00;48.60;;;;;;5069118;28;20048;-39
2022/10/12 12:51:18;;;;;;;9.20;4.30;;;27.40;47.70;;;;;;5065136;28;20055;-39
2022/10/12 12:53:46;;;;;;;10.82;4.53;;;26.80;48.10;;;;;;5070957;28;20396;-38
2022/10/12 12:56:41;;;;;;;10.25;3.30;;;26.70;47.30;;;;;;5070797;28;20064;-38
2022/10/12 12:59:38;;;;;;;8.43;3.35;;;26.70;48.20;;;;;;5069213;28;20513;-39
2022/10/12 13:02:35;;;;;;;18.38;12.27;;;27.20;47.60;;;;;;5084745;28;20052;-38
2022/10/12 13:05:41;;;;;;;7.25;3.50;;;27.30;47.00;;;;;;5067122;28;20048;-39
2022/10/12 13:11:46;;;;;;;12.48;8.32;;;26.80;47.00;;;;;;7284823;19;20385;-54